Goldeneye — V7PK5 — position and weather

sailwx.info

Track history (hours):
 
Tides and Currents Weather Stations Pressure Air Temp Water Temp Dewpoint Dewpoint Depression Visibility Wind Speed Wind Dir Waves Ship Positions

Goldeneye

Last reported at 2018-Feb-23 14:44 UTC. Time now 2018-Apr-22 08:33 UTC.
Position N 09°11' W 079°53'.
Warning: this ship's position is 57 days out of date.

Length 190 m; draft 12 m.

Type: Cargo ship. MMSI: 538003248.

Date/timePositionNaut miles runAvg speedWind from/ knotsBaromVisibWave heightAir tempDewpointWater temp
2018-Feb-23 14:44N 09°11' W 079°53'3 9.2
2018-Feb-23 14:23N 09°13' W 079°55'2 6.5
2018-Feb-23 14:00N 09°15' W 079°55'0 0.6
2018-Feb-23 13:31N 09°15' W 079°55'0 0.1
2018-Feb-23 13:01N 09°15' W 079°55'0 0.0
2018-Feb-23 12:31N 09°15' W 079°55'0 0.0
2018-Feb-23 12:00N 09°15' W 079°55'0 0.0
2018-Feb-23 11:30N 09°15' W 079°55'0 0.0
2018-Feb-23 10:50N 09°15' W 079°55'0 0.0
2018-Feb-23 10:31N 09°15' W 079°55'0 0.0
2018-Feb-23 10:00N 09°15' W 079°55'0 0.0
2018-Feb-23 09:30N 09°15' W 079°55'0 0.0
2018-Feb-23 08:58N 09°15' W 079°55'0 0.0
2018-Feb-23 08:26N 09°15' W 079°55'0 0.1
2018-Feb-23 08:01N 09°15' W 079°55'0 0.2
2018-Feb-23 07:30N 09°15' W 079°55'1 2.2
2018-Feb-23 07:01N 09°16' W 079°55'0 0.8
2018-Feb-23 06:30N 09°16' W 079°55'0 0.5
2018-Feb-23 05:59N 09°17' W 079°55'0 0.2
2018-Feb-23 05:29N 09°17' W 079°55'1 1.4
2018-Feb-23 04:59N 09°17' W 079°55'2 4.1
2018-Feb-23 04:31N 09°19' W 079°55'3 6.3
2018-Feb-23 04:00N 09°23' W 079°56'0 0.3
2018-Feb-23 03:28N 09°22' W 079°56'0 0.0
2018-Feb-23 02:58N 09°22' W 079°56'0 0.0
2018-Feb-23 02:28N 09°22' W 079°56'0 0.0
2018-Feb-23 01:58N 09°22' W 079°56'0 0.0
2018-Feb-23 01:28N 09°22' W 079°56'0 0.0
2018-Feb-23 00:58N 09°22' W 079°56'0 0.0
2018-Feb-23 00:28N 09°22' W 079°56'0 0.0
2018-Feb-22 23:58N 09°22' W 079°56'0 0.0
2018-Feb-22 23:28N 09°22' W 079°56'0 0.0
2018-Feb-22 22:58N 09°22' W 079°56'0 0.0
2018-Feb-22 22:28N 09°22' W 079°56'0 0.0
2018-Feb-22 21:58N 09°22' W 079°56'0 0.0
2018-Feb-22 21:28N 09°22' W 079°56'0 0.0
2018-Feb-22 20:58N 09°22' W 079°56'0 0.0
2018-Feb-22 20:28N 09°22' W 079°56'0 0.0
2018-Feb-22 19:58N 09°22' W 079°56'0 0.0
2018-Feb-22 19:28N 09°22' W 079°56'0 0.0
2018-Feb-22 18:58N 09°22' W 079°56'0 0.0
2018-Feb-22 18:28N 09°22' W 079°56'0 0.0
2018-Feb-22 17:58N 09°22' W 079°56'0 0.0
2018-Feb-22 17:28N 09°22' W 079°56'0 0.0
2018-Feb-22 16:58N 09°22' W 079°56'0 0.0
2018-Feb-22 16:28N 09°22' W 079°56'0 0.0
2018-Feb-22 15:58N 09°22' W 079°56'0 0.0
2018-Feb-22 15:28N 09°22' W 079°56'0 0.0
2018-Feb-22 14:58N 09°22' W 079°56'0 0.0
2018-Feb-22 14:28N 09°22' W 079°56'0 0.0
2018-Feb-22 13:58N 09°22' W 079°56'0 0.0
2018-Feb-22 13:28N 09°22' W 079°56'0 0.0
2018-Feb-22 12:58N 09°22' W 079°56'0 0.0
2018-Feb-22 12:28N 09°22' W 079°56'0 0.0
2018-Feb-22 11:58N 09°22' W 079°56'0 0.0
2018-Feb-22 11:28N 09°22' W 079°56'0 0.0
2018-Feb-22 10:58N 09°22' W 079°56'0 0.0
2018-Feb-22 10:28N 09°22' W 079°56'0 0.0
2018-Feb-22 09:58N 09°22' W 079°56'0 0.0
2018-Feb-22 09:28N 09°22' W 079°56'0 0.3
2018-Feb-22 09:00N 09°22' W 079°56'1 2.6
2018-Feb-22 08:30N 09°24' W 079°55'3 5.9
2018-Feb-22 08:00N 09°27' W 079°55'2 4.7
2018-Feb-22 07:30N 09°24' W 079°55'3 5.8
2018-Feb-22 07:00N 09°24' W 079°58'0 0.9
2018-Feb-22 06:29N 09°24' W 079°58'0 0.0
2018-Feb-22 05:59N 09°24' W 079°58'0 0.0
2018-Feb-22 05:29N 09°24' W 079°58'0 0.0
2018-Feb-22 04:44N 09°24' W 079°58'0 0.0
2018-Feb-22 04:29N 09°24' W 079°58'0 0.0
2018-Feb-22 03:59N 09°24' W 079°58'0 0.0
2018-Feb-22 03:11N 09°24' W 079°58'0 0.0
2018-Feb-22 02:59N 09°24' W 079°58'0 0.0
2018-Feb-22 02:29N 09°24' W 079°58'0 0.0
2018-Feb-22 01:59N 09°24' W 079°58'0 0.0
2018-Feb-22 01:29N 09°24' W 079°58'0 0.0
2018-Feb-21 21:29N 09°24' W 079°58'0 0.0
2018-Feb-21 20:59N 09°24' W 079°58'0 0.0
2018-Feb-21 20:29N 09°24' W 079°58'0 0.0
2018-Feb-21 19:59N 09°24' W 079°58'0 0.0
2018-Feb-21 19:29N 09°24' W 079°58'0 0.0
2018-Feb-21 19:00N 09°24' W 079°58'0 0.0
2018-Feb-21 18:30N 09°24' W 079°58'  
2018-Feb-17 15:39N 11°05' W 075°03'211.1
2018-Feb-17 15:28N 11°05' W 075°01'510.8
2018-Feb-17 14:59N 11°06' W 074°56'5 9.0
2018-Feb-17 14:29N 11°06' W 074°51'5 9.7
2018-Feb-17 13:59N 11°02' W 074°48'4 7.1
2018-Feb-17 13:29N 10°59' W 074°46'0 0.0
2018-Feb-17 12:58N 10°59' W 074°46'0 0.0
2018-Feb-17 12:28N 10°59' W 074°46'0 0.0
2018-Feb-17 11:58N 10°59' W 074°46'0 0.0
2018-Feb-17 09:52N 10°59' W 074°46'0 0.0
2018-Feb-17 09:16N 10°59' W 074°46'0 0.0
2018-Feb-17 08:58N 10°59' W 074°46'0 0.0
2018-Feb-17 08:28N 10°59' W 074°46'0 0.0
2018-Feb-17 07:40N 10°59' W 074°46'0 0.0
2018-Feb-17 07:16N 10°59' W 074°46'0 0.0
2018-Feb-17 06:52N 10°59' W 074°46'0 0.0
2018-Feb-17 06:28N 10°59' W 074°46'0 0.0
2018-Feb-17 05:58N 10°59' W 074°46'0 0.0
2018-Feb-17 05:28N 10°59' W 074°46'0 0.0
2018-Feb-17 04:58N 10°59' W 074°46'0 0.0
2018-Feb-17 04:28N 10°59' W 074°46'0 0.0
2018-Feb-17 03:52N 10°59' W 074°46'0 0.0
2018-Feb-17 03:28N 10°59' W 074°46'0 0.0
2018-Feb-17 02:49N 10°59' W 074°46'0 0.0
2018-Feb-17 02:16N 10°59' W 074°46'0 0.0
2018-Feb-17 01:55N 10°59' W 074°46'0 0.0
2018-Feb-17 01:28N 10°59' W 074°46'0 0.0
2018-Feb-17 00:58N 10°59' W 074°46'0 0.0
2018-Feb-17 00:25N 10°59' W 074°46'0 0.0
2018-Feb-16 23:55N 10°59' W 074°46'0 0.0
2018-Feb-16 23:22N 10°59' W 074°46'0 0.0
2018-Feb-16 22:58N 10°59' W 074°46'0 0.0
2018-Feb-16 22:28N 10°59' W 074°46'0 0.0
2018-Feb-16 21:49N 10°59' W 074°46'0 0.0
2018-Feb-16 21:28N 10°59' W 074°46'0 0.0
2018-Feb-16 20:58N 10°59' W 074°46'0 0.0
2018-Feb-16 20:25N 10°59' W 074°46'0 0.0
2018-Feb-16 19:58N 10°59' W 074°46'0 0.0
2018-Feb-16 19:28N 10°59' W 074°46'0 0.0
2018-Feb-16 18:58N 10°59' W 074°46'0 0.0
2018-Feb-16 18:25N 10°59' W 074°46'0 0.0
2018-Feb-16 17:58N 10°59' W 074°46'0 0.0
2018-Feb-16 17:25N 10°59' W 074°46'0 0.0
2018-Feb-16 16:58N 10°59' W 074°46'0 0.0
2018-Feb-16 16:22N 10°59' W 074°46'0 0.0
2018-Feb-16 15:55N 10°59' W 074°46'0 0.0
2018-Feb-16 15:28N 10°59' W 074°46'0 0.0
2018-Feb-16 14:58N 10°59' W 074°46'0 0.0
2018-Feb-16 14:28N 10°59' W 074°46'0 0.0
2018-Feb-16 13:58N 10°59' W 074°46'0 0.0
2018-Feb-16 13:22N 10°59' W 074°46'0 0.0
2018-Feb-16 12:58N 10°59' W 074°46'0 0.0
2018-Feb-16 12:28N 10°59' W 074°46'0 0.0
2018-Feb-16 11:55N 10°59' W 074°46'0 0.0
2018-Feb-16 11:22N 10°59' W 074°46'0 0.0
2018-Feb-16 10:58N 10°59' W 074°46'0 0.0
2018-Feb-16 10:28N 10°59' W 074°46'0 0.0
2018-Feb-16 09:52N 10°59' W 074°46'0 0.0
2018-Feb-16 09:10N 10°59' W 074°46'0 0.0
2018-Feb-16 07:10N 10°59' W 074°46'0 0.0
2018-Feb-16 04:34N 10°59' W 074°46'0 0.0
2018-Feb-16 04:22N 10°59' W 074°46'0 0.0
2018-Feb-15 14:28N 10°59' W 074°46'0 0.0
2018-Feb-15 13:49N 10°59' W 074°46'0 0.0
2018-Feb-15 13:28N 10°59' W 074°46'0 0.0
2018-Feb-15 12:58N 10°59' W 074°46'0 0.0
2018-Feb-15 12:28N 10°59' W 074°46'0 0.0
2018-Feb-15 11:58N 10°59' W 074°46'0 0.0
2018-Feb-15 06:16N 10°59' W 074°46'0 0.0
2018-Feb-15 05:49N 10°59' W 074°46'0 0.0
2018-Feb-15 05:28N 10°59' W 074°46'0 0.0
2018-Feb-15 04:52N 10°59' W 074°46'0 0.0
2018-Feb-15 04:28N 10°59' W 074°46'0 0.0
2018-Feb-15 03:55N 10°59' W 074°46'0 0.0
2018-Feb-15 03:25N 10°59' W 074°46'0 0.0
2018-Feb-15 00:49N 10°59' W 074°46'0 0.0
2018-Feb-15 00:22N 10°59' W 074°46'0 0.0
2018-Feb-14 18:25N 10°59' W 074°46'0 0.0
2018-Feb-14 17:37N 10°59' W 074°46'0 0.0
2018-Feb-14 17:28N 10°59' W 074°46'0 0.0
2018-Feb-14 16:49N 10°59' W 074°46'0 0.0
2018-Feb-14 16:04N 10°59' W 074°46'0 0.0
2018-Feb-14 15:52N 10°59' W 074°46'0 0.0
2018-Feb-14 15:13N 10°59' W 074°46'0 0.0
2018-Feb-14 14:52N 10°59' W 074°46'0 0.0
2018-Feb-14 14:13N 10°59' W 074°46'0 0.0
2018-Feb-14 13:49N 10°59' W 074°46'0 0.0
2018-Feb-14 13:10N 10°59' W 074°46'0 0.0
2018-Feb-14 12:58N 10°59' W 074°46'0 0.0
2018-Feb-14 12:28N 10°59' W 074°46'0 0.0
2018-Feb-14 11:46N 10°59' W 074°46'0 0.0
2018-Feb-13 23:13N 10°59' W 074°46'0 0.0
2018-Feb-13 22:49N 10°59' W 074°46'0 0.0
2018-Feb-13 22:28N 10°59' W 074°46'  
Track history (hours):
 
Tides and Currents Weather Stations Pressure Air Temp Water Temp Dewpoint Dewpoint Depression Visibility Wind Speed Wind Dir Waves Ship Positions

Goldeneye

Last reported at 2018-Feb-23 14:44 UTC. Time now 2018-Apr-22 08:33 UTC.
Position N 09°11' W 079°53'.
Warning: this ship's position is 57 days out of date.

Length 190 m; draft 12 m.

Type: Cargo ship. MMSI: 538003248.

Date/timePositionNaut miles runAvg speedWind from/ knotsBaromVisibWave heightAir tempDewpointWater temp
2018-Feb-23 14:44N 09°11' W 079°53'3 9.2
2018-Feb-23 14:23N 09°13' W 079°55'2 6.5
2018-Feb-23 14:00N 09°15' W 079°55'0 0.6
2018-Feb-23 13:31N 09°15' W 079°55'0 0.1
2018-Feb-23 13:01N 09°15' W 079°55'0 0.0
2018-Feb-23 12:31N 09°15' W 079°55'0 0.0
2018-Feb-23 12:00N 09°15' W 079°55'0 0.0
2018-Feb-23 11:30N 09°15' W 079°55'0 0.0
2018-Feb-23 10:50N 09°15' W 079°55'0 0.0
2018-Feb-23 10:31N 09°15' W 079°55'0 0.0
2018-Feb-23 10:00N 09°15' W 079°55'0 0.0
2018-Feb-23 09:30N 09°15' W 079°55'0 0.0
2018-Feb-23 08:58N 09°15' W 079°55'0 0.0
2018-Feb-23 08:26N 09°15' W 079°55'0 0.1
2018-Feb-23 08:01N 09°15' W 079°55'0 0.2
2018-Feb-23 07:30N 09°15' W 079°55'1 2.2
2018-Feb-23 07:01N 09°16' W 079°55'0 0.8
2018-Feb-23 06:30N 09°16' W 079°55'0 0.5
2018-Feb-23 05:59N 09°17' W 079°55'0 0.2
2018-Feb-23 05:29N 09°17' W 079°55'1 1.4
2018-Feb-23 04:59N 09°17' W 079°55'2 4.1
2018-Feb-23 04:31N 09°19' W 079°55'3 6.3
2018-Feb-23 04:00N 09°23' W 079°56'0 0.3
2018-Feb-23 03:28N 09°22' W 079°56'0 0.0
2018-Feb-23 02:58N 09°22' W 079°56'0 0.0
2018-Feb-23 02:28N 09°22' W 079°56'0 0.0
2018-Feb-23 01:58N 09°22' W 079°56'0 0.0
2018-Feb-23 01:28N 09°22' W 079°56'0 0.0
2018-Feb-23 00:58N 09°22' W 079°56'0 0.0
2018-Feb-23 00:28N 09°22' W 079°56'0 0.0
2018-Feb-22 23:58N 09°22' W 079°56'0 0.0
2018-Feb-22 23:28N 09°22' W 079°56'0 0.0
2018-Feb-22 22:58N 09°22' W 079°56'0 0.0
2018-Feb-22 22:28N 09°22' W 079°56'0 0.0
2018-Feb-22 21:58N 09°22' W 079°56'0 0.0
2018-Feb-22 21:28N 09°22' W 079°56'0 0.0
2018-Feb-22 20:58N 09°22' W 079°56'0 0.0
2018-Feb-22 20:28N 09°22' W 079°56'0 0.0
2018-Feb-22 19:58N 09°22' W 079°56'0 0.0
2018-Feb-22 19:28N 09°22' W 079°56'0 0.0
2018-Feb-22 18:58N 09°22' W 079°56'0 0.0
2018-Feb-22 18:28N 09°22' W 079°56'0 0.0
2018-Feb-22 17:58N 09°22' W 079°56'0 0.0
2018-Feb-22 17:28N 09°22' W 079°56'0 0.0
2018-Feb-22 16:58N 09°22' W 079°56'0 0.0
2018-Feb-22 16:28N 09°22' W 079°56'0 0.0
2018-Feb-22 15:58N 09°22' W 079°56'0 0.0
2018-Feb-22 15:28N 09°22' W 079°56'0 0.0
2018-Feb-22 14:58N 09°22' W 079°56'0 0.0
2018-Feb-22 14:28N 09°22' W 079°56'0 0.0
2018-Feb-22 13:58N 09°22' W 079°56'0 0.0
2018-Feb-22 13:28N 09°22' W 079°56'0 0.0
2018-Feb-22 12:58N 09°22' W 079°56'0 0.0
2018-Feb-22 12:28N 09°22' W 079°56'0 0.0
2018-Feb-22 11:58N 09°22' W 079°56'0 0.0
2018-Feb-22 11:28N 09°22' W 079°56'0 0.0
2018-Feb-22 10:58N 09°22' W 079°56'0 0.0
2018-Feb-22 10:28N 09°22' W 079°56'0 0.0
2018-Feb-22 09:58N 09°22' W 079°56'0 0.0
2018-Feb-22 09:28N 09°22' W 079°56'0 0.3
2018-Feb-22 09:00N 09°22' W 079°56'1 2.6
2018-Feb-22 08:30N 09°24' W 079°55'3 5.9
2018-Feb-22 08:00N 09°27' W 079°55'2 4.7
2018-Feb-22 07:30N 09°24' W 079°55'3 5.8
2018-Feb-22 07:00N 09°24' W 079°58'0 0.9
2018-Feb-22 06:29N 09°24' W 079°58'0 0.0
2018-Feb-22 05:59N 09°24' W 079°58'0 0.0
2018-Feb-22 05:29N 09°24' W 079°58'0 0.0
2018-Feb-22 04:44N 09°24' W 079°58'0 0.0
2018-Feb-22 04:29N 09°24' W 079°58'0 0.0
2018-Feb-22 03:59N 09°24' W 079°58'0 0.0
2018-Feb-22 03:11N 09°24' W 079°58'0 0.0
2018-Feb-22 02:59N 09°24' W 079°58'0 0.0
2018-Feb-22 02:29N 09°24' W 079°58'0 0.0
2018-Feb-22 01:59N 09°24' W 079°58'0 0.0
2018-Feb-22 01:29N 09°24' W 079°58'0 0.0
2018-Feb-21 21:29N 09°24' W 079°58'0 0.0
2018-Feb-21 20:59N 09°24' W 079°58'0 0.0
2018-Feb-21 20:29N 09°24' W 079°58'0 0.0
2018-Feb-21 19:59N 09°24' W 079°58'0 0.0
2018-Feb-21 19:29N 09°24' W 079°58'0 0.0
2018-Feb-21 19:00N 09°24' W 079°58'0 0.0
2018-Feb-21 18:30N 09°24' W 079°58'  
2018-Feb-17 15:39N 11°05' W 075°03'211.1
2018-Feb-17 15:28N 11°05' W 075°01'510.8
2018-Feb-17 14:59N 11°06' W 074°56'5 9.0
2018-Feb-17 14:29N 11°06' W 074°51'5 9.7
2018-Feb-17 13:59N 11°02' W 074°48'4 7.1
2018-Feb-17 13:29N 10°59' W 074°46'0 0.0
2018-Feb-17 12:58N 10°59' W 074°46'0 0.0
2018-Feb-17 12:28N 10°59' W 074°46'0 0.0
2018-Feb-17 11:58N 10°59' W 074°46'0 0.0
2018-Feb-17 09:52N 10°59' W 074°46'0 0.0
2018-Feb-17 09:16N 10°59' W 074°46'0 0.0
2018-Feb-17 08:58N 10°59' W 074°46'0 0.0
2018-Feb-17 08:28N 10°59' W 074°46'0 0.0
2018-Feb-17 07:40N 10°59' W 074°46'0 0.0
2018-Feb-17 07:16N 10°59' W 074°46'0 0.0
2018-Feb-17 06:52N 10°59' W 074°46'0 0.0
2018-Feb-17 06:28N 10°59' W 074°46'0 0.0
2018-Feb-17 05:58N 10°59' W 074°46'0 0.0
2018-Feb-17 05:28N 10°59' W 074°46'0 0.0
2018-Feb-17 04:58N 10°59' W 074°46'0 0.0
2018-Feb-17 04:28N 10°59' W 074°46'0 0.0
2018-Feb-17 03:52N 10°59' W 074°46'0 0.0
2018-Feb-17 03:28N 10°59' W 074°46'0 0.0
2018-Feb-17 02:49N 10°59' W 074°46'0 0.0
2018-Feb-17 02:16N 10°59' W 074°46'0 0.0
2018-Feb-17 01:55N 10°59' W 074°46'0 0.0
2018-Feb-17 01:28N 10°59' W 074°46'0 0.0
2018-Feb-17 00:58N 10°59' W 074°46'0 0.0
2018-Feb-17 00:25N 10°59' W 074°46'0 0.0
2018-Feb-16 23:55N 10°59' W 074°46'0 0.0
2018-Feb-16 23:22N 10°59' W 074°46'0 0.0
2018-Feb-16 22:58N 10°59' W 074°46'0 0.0
2018-Feb-16 22:28N 10°59' W 074°46'0 0.0
2018-Feb-16 21:49N 10°59' W 074°46'0 0.0
2018-Feb-16 21:28N 10°59' W 074°46'0 0.0
2018-Feb-16 20:58N 10°59' W 074°46'0 0.0
2018-Feb-16 20:25N 10°59' W 074°46'0 0.0
2018-Feb-16 19:58N 10°59' W 074°46'0 0.0
2018-Feb-16 19:28N 10°59' W 074°46'0 0.0
2018-Feb-16 18:58N 10°59' W 074°46'0 0.0
2018-Feb-16 18:25N 10°59' W 074°46'0 0.0
2018-Feb-16 17:58N 10°59' W 074°46'0 0.0
2018-Feb-16 17:25N 10°59' W 074°46'0 0.0
2018-Feb-16 16:58N 10°59' W 074°46'0 0.0
2018-Feb-16 16:22N 10°59' W 074°46'0 0.0
2018-Feb-16 15:55N 10°59' W 074°46'0 0.0
2018-Feb-16 15:28N 10°59' W 074°46'0 0.0
2018-Feb-16 14:58N 10°59' W 074°46'0 0.0
2018-Feb-16 14:28N 10°59' W 074°46'0 0.0
2018-Feb-16 13:58N 10°59' W 074°46'0 0.0
2018-Feb-16 13:22N 10°59' W 074°46'0 0.0
2018-Feb-16 12:58N 10°59' W 074°46'0 0.0
2018-Feb-16 12:28N 10°59' W 074°46'0 0.0
2018-Feb-16 11:55N 10°59' W 074°46'0 0.0
2018-Feb-16 11:22N 10°59' W 074°46'0 0.0
2018-Feb-16 10:58N 10°59' W 074°46'0 0.0
2018-Feb-16 10:28N 10°59' W 074°46'0 0.0
2018-Feb-16 09:52N 10°59' W 074°46'0 0.0
2018-Feb-16 09:10N 10°59' W 074°46'0 0.0
2018-Feb-16 07:10N 10°59' W 074°46'0 0.0
2018-Feb-16 04:34N 10°59' W 074°46'0 0.0
2018-Feb-16 04:22N 10°59' W 074°46'0 0.0
2018-Feb-15 14:28N 10°59' W 074°46'0 0.0
2018-Feb-15 13:49N 10°59' W 074°46'0 0.0
2018-Feb-15 13:28N 10°59' W 074°46'0 0.0
2018-Feb-15 12:58N 10°59' W 074°46'0 0.0
2018-Feb-15 12:28N 10°59' W 074°46'0 0.0
2018-Feb-15 11:58N 10°59' W 074°46'0 0.0
2018-Feb-15 06:16N 10°59' W 074°46'0 0.0
2018-Feb-15 05:49N 10°59' W 074°46'0 0.0
2018-Feb-15 05:28N 10°59' W 074°46'0 0.0
2018-Feb-15 04:52N 10°59' W 074°46'0 0.0
2018-Feb-15 04:28N 10°59' W 074°46'0 0.0
2018-Feb-15 03:55N 10°59' W 074°46'0 0.0
2018-Feb-15 03:25N 10°59' W 074°46'0 0.0
2018-Feb-15 00:49N 10°59' W 074°46'0 0.0
2018-Feb-15 00:22N 10°59' W 074°46'0 0.0
2018-Feb-14 18:25N 10°59' W 074°46'0 0.0
2018-Feb-14 17:37N 10°59' W 074°46'0 0.0
2018-Feb-14 17:28N 10°59' W 074°46'0 0.0
2018-Feb-14 16:49N 10°59' W 074°46'0 0.0
2018-Feb-14 16:04N 10°59' W 074°46'0 0.0
2018-Feb-14 15:52N 10°59' W 074°46'0 0.0
2018-Feb-14 15:13N 10°59' W 074°46'0 0.0
2018-Feb-14 14:52N 10°59' W 074°46'0 0.0
2018-Feb-14 14:13N 10°59' W 074°46'0 0.0
2018-Feb-14 13:49N 10°59' W 074°46'0 0.0
2018-Feb-14 13:10N 10°59' W 074°46'0 0.0
2018-Feb-14 12:58N 10°59' W 074°46'0 0.0
2018-Feb-14 12:28N 10°59' W 074°46'0 0.0
2018-Feb-14 11:46N 10°59' W 074°46'0 0.0
2018-Feb-13 23:13N 10°59' W 074°46'0 0.0
2018-Feb-13 22:49N 10°59' W 074°46'0 0.0
2018-Feb-13 22:28N 10°59' W 074°46'  

Dump ship's entire track history